Time,TemperatureF,DewpointF,PressureIn,WindDirection,WindDirectionDegrees,WindSpeedMPH,WindSpeedGustMPH,Humidity,HourlyPrecipIn,Conditions,Clouds,dailyrainin,SoftwareType,DateUTC
2013-10-18 00:01:00,65.1,60.8,29.56,West,270,2.3,2.3,86,0.00,RA,,0.00,WeatherDisplay:10.37,2013-10-18 04:01:00,
2013-10-18 00:06:00,65.1,60.8,29.56,East,90,1.1,1.1,86,0.00,RA,,0.00,WeatherDisplay:10.37,2013-10-18 04:06:00,
2013-10-18 00:11:00,65.1,60.8,29.56,South,180,2.3,2.3,86,0.00,CLR,,0.00,WeatherDisplay:10.37,2013-10-18 04:11:00,
2013-10-18 00:16:00,65.1,60.8,29.56,SSE,158,2.3,2.3,86,0.00,CLR,,0.00,WeatherDisplay:10.37,2013-10-18 04:16:00,
2013-10-18 00:21:00,65.1,60.8,29.56,SSW,202,1.1,1.1,86,0.00,CLR,,0.00,WeatherDisplay:10.37,2013-10-18 04:21:00,
2013-10-18 00:26:00,65.1,60.8,29.56,WSW,248,2.3,2.3,86,0.00,CLR,,0.00,WeatherDisplay:10.37,2013-10-18 04:26:00,
2013-10-18 00:31:00,65.1,60.5,29.56,SW,225,4.9,4.9,85,0.00,CLR,,0.00,WeatherDisplay:10.37,2013-10-18 04:31:00,
2013-10-18 00:36:00,65.1,60.5,29.56,SSE,158,3.5,3.5,85,0.00,CLR,,0.00,WeatherDisplay:10.37,2013-10-18 04:36:00,
2013-10-18 00:41:00,65.1,60.5,29.56,SSW,202,2.3,2.3,85,0.00,CLR,,0.00,WeatherDisplay:10.37,2013-10-18 04:41:00,
2013-10-18 00:46:00,65.1,60.5,29.56,SSW,202,2.3,2.3,85,0.00,CLR,,0.00,WeatherDisplay:10.37,2013-10-18 04:46:00,
2013-10-18 00:51:00,65.1,60.8,29.56,SSW,202,3.5,3.5,86,0.00,CLR,,0.00,WeatherDisplay:10.37,2013-10-18 04:51:00,
2013-10-18 00:56:00,65.1,60.8,29.56,SE,135,4.6,4.6,86,0.00,CLR,,0.00,WeatherDisplay:10.37,2013-10-18 04:56:00,
2013-10-18 01:01:00,65.1,60.8,29.56,SSE,158,3.3,3.3,86,0.00,CLR,,0.00,WeatherDisplay:10.37,2013-10-18 05:01:00,
2013-10-18 01:06:00,65.1,60.8,29.56,SE,135,2.3,2.3,86,0.00,CLR,,0.00,WeatherDisplay:10.37,2013-10-18 05:06:00,
2013-10-18 01:11:00,65.1,60.8,29.56,SW,225,1.8,1.8,86,0.00,CLR,,0.00,WeatherDisplay:10.37,2013-10-18 05:11:00,
2013-10-18 01:16:00,65.1,60.5,29.56,South,180,2.3,2.3,85,0.00,CLR,,0.00,WeatherDisplay:10.37,2013-10-18 05:16:00,
2013-10-18 01:21:00,65.1,60.8,29.56,SW,225,2.3,2.3,86,0.00,CLR,,0.00,WeatherDisplay:10.37,2013-10-18 05:21:00,
2013-10-18 01:26:00,65.1,60.8,29.56,SE,135,2.3,2.3,86,0.00,CLR,,0.00,WeatherDisplay:10.37,2013-10-18 05:26:00,
2013-10-18 01:31:00,65.1,61.2,29.56,SE,135,3.5,3.5,87,0.00,CLR,,0.00,WeatherDisplay:10.37,2013-10-18 05:31:00,
2013-10-18 01:36:00,65.1,61.2,29.56,SSW,202,2.3,2.3,87,0.00,CLR,,0.00,WeatherDisplay:10.37,2013-10-18 05:36:00,
2013-10-18 01:41:00,65.1,61.2,29.56,SE,135,8.1,8.1,87,0.00,CLR,,0.00,WeatherDisplay:10.37,2013-10-18 05:41:00,
2013-10-18 01:46:00,65.3,61.3,29.56,SW,225,2.3,2.3,87,0.00,CLR,,0.00,WeatherDisplay:10.37,2013-10-18 05:46:00,
2013-10-18 01:51:00,65.3,61.3,29.56,South,180,2.6,2.6,87,0.00,CLR,,0.00,WeatherDisplay:10.37,2013-10-18 05:51:00,
2013-10-18 01:56:00,65.3,61.0,29.56,WSW,248,1.1,1.1,86,0.00,CLR,,0.00,WeatherDisplay:10.37,2013-10-18 05:56:00,
2013-10-18 02:01:00,65.5,61.2,29.56,SW,225,2.3,2.3,86,0.00,CLR,,0.00,WeatherDisplay:10.37,2013-10-18 06:01:00,
2013-10-18 02:06:00,65.5,61.2,29.56,South,180,3.5,3.5,86,0.00,CLR,,0.00,WeatherDisplay:10.37,2013-10-18 06:06:00,
2013-10-18 02:11:00,65.5,60.8,29.57,SSE,158,4.6,4.6,85,0.00,CLR,,0.00,WeatherDisplay:10.37,2013-10-18 06:11:00,
2013-10-18 02:16:00,65.7,61.0,29.57,SW,225,0.2,0.2,85,0.00,CLR,,0.00,WeatherDisplay:10.37,2013-10-18 06:16:00,
2013-10-18 02:21:00,65.7,60.7,29.57,SSW,202,1.8,1.8,84,0.00,CLR,,0.00,WeatherDisplay:10.37,2013-10-18 06:21:00,
2013-10-18 02:26:00,65.7,60.7,29.57,East,90,1.8,1.8,84,0.00,CLR,,0.00,WeatherDisplay:10.37,2013-10-18 06:26:00,
2013-10-18 02:31:00,65.7,60.4,29.57,West,270,1.1,1.1,83,0.00,CLR,,0.00,WeatherDisplay:10.37,2013-10-18 06:31:00,
2013-10-18 02:36:00,65.7,59.0,29.58,South,180,2.3,2.3,79,0.00,CLR,,0.00,WeatherDisplay:10.37,2013-10-18 06:36:00,
2013-10-18 02:41:00,65.7,58.6,29.57,ENE,68,2.3,2.3,78,0.00,CLR,,0.00,WeatherDisplay:10.37,2013-10-18 06:41:00,
2013-10-18 02:46:00,65.5,58.1,29.58,South,180,4.9,4.9,77,0.00,CLR,,0.00,WeatherDisplay:10.37,2013-10-18 06:46:00,
2013-10-18 02:51:00,65.3,56.8,29.58,SW,225,1.1,1.1,74,0.00,CLR,,0.00,WeatherDisplay:10.37,2013-10-18 06:51:00,
2013-10-18 02:56:00,65.1,57.0,29.58,WSW,248,2.3,2.3,75,0.00,CLR,,0.00,WeatherDisplay:10.37,2013-10-18 06:56:00,
2013-10-18 03:01:00,64.9,56.5,29.58,SSE,158,4.6,4.6,74,0.00,CLR,,0.00,WeatherDisplay:10.37,2013-10-18 07:01:00,
2013-10-18 03:06:00,64.8,56.6,29.58,WSW,248,1.1,1.1,75,0.00,CLR,,0.00,WeatherDisplay:10.37,2013-10-18 07:06:00,
2013-10-18 03:11:00,64.6,56.1,29.58,ENE,68,0.5,0.5,74,0.00,CLR,,0.00,WeatherDisplay:10.37,2013-10-18 07:11:00,
2013-10-18 03:16:00,64.4,55.6,29.59,SSE,158,2.3,2.3,73,0.00,CLR,,0.00,WeatherDisplay:10.37,2013-10-18 07:16:00,
2013-10-18 03:21:00,64.4,55.6,29.59,WSW,248,2.3,2.3,73,0.00,CLR,,0.00,WeatherDisplay:10.37,2013-10-18 07:21:00,
2013-10-18 03:26:00,64.4,55.2,29.59,SSW,202,3.5,3.6,72,0.00,CLR,,0.00,WeatherDisplay:10.37,2013-10-18 07:26:00,
2013-10-18 03:31:00,64.0,54.4,29.59,NNW,338,1.1,1.1,71,0.00,CLR,,0.00,WeatherDisplay:10.37,2013-10-18 07:31:00,
2013-10-18 03:36:00,64.0,55.2,29.59,ENE,68,1.1,1.1,73,0.00,CLR,,0.00,WeatherDisplay:10.37,2013-10-18 07:36:00,
2013-10-18 03:41:00,63.7,54.9,29.59,NE,45,2.3,2.4,73,0.00,CLR,,0.00,WeatherDisplay:10.37,2013-10-18 07:41:00,
2013-10-18 03:46:00,63.7,54.9,29.60,East,90,2.3,2.3,73,0.00,CLR,,0.00,WeatherDisplay:10.37,2013-10-18 07:46:00,
2013-10-18 03:52:00,63.3,54.1,29.60,ESE,112,3.5,3.5,72,0.00,CLR,,0.00,WeatherDisplay:10.37,2013-10-18 07:52:00,
2013-10-18 03:57:00,63.1,54.3,29.61,WSW,248,2.3,2.3,73,0.00,CLR,,0.00,WeatherDisplay:10.37,2013-10-18 07:57:00,
2013-10-18 04:02:00,63.0,54.2,29.60,SSE,158,3.5,3.5,73,0.00,CLR,,0.00,WeatherDisplay:10.37,2013-10-18 08:02:00,
2013-10-18 04:07:00,62.8,54.4,29.61,ESE,112,1.6,1.6,74,0.00,CLR,,0.00,WeatherDisplay:10.37,2013-10-18 08:07:00,
2013-10-18 04:12:00,62.6,53.8,29.61,SSW,202,1.1,1.1,73,0.00,CLR,,0.00,WeatherDisplay:10.37,2013-10-18 08:12:00,
2013-10-18 04:17:00,62.4,53.6,29.61,SSE,158,3.5,3.5,73,0.00,CLR,,0.00,WeatherDisplay:10.37,2013-10-18 08:17:00,
2013-10-18 04:22:00,62.2,53.5,29.61,South,180,2.3,2.3,73,0.00,CLR,,0.00,WeatherDisplay:10.37,2013-10-18 08:22:00,
2013-10-18 04:27:00,62.2,53.1,29.61,WSW,248,2.3,2.3,72,0.00,CLR,,0.00,WeatherDisplay:10.37,2013-10-18 08:27:00,
2013-10-18 04:32:00,62.1,53.3,29.62,East,90,0.5,0.5,73,0.00,CLR,,0.00,WeatherDisplay:10.37,2013-10-18 08:32:00,
2013-10-18 04:37:00,61.7,52.6,29.62,NNE,22,2.3,2.3,72,0.00,CLR,,0.00,WeatherDisplay:10.37,2013-10-18 08:37:00,
2013-10-18 04:42:00,61.5,52.8,29.62,SSW,202,2.3,2.3,73,0.00,CLR,,0.00,WeatherDisplay:10.37,2013-10-18 08:42:00,
2013-10-18 04:47:00,61.3,52.6,29.62,SE,135,1.1,1.1,73,0.00,CLR,,0.00,WeatherDisplay:10.37,2013-10-18 08:47:00,
2013-10-18 04:52:00,61.2,52.4,29.63,SE,135,2.4,2.4,73,0.00,CLR,,0.00,WeatherDisplay:10.37,2013-10-18 08:52:00,
2013-10-18 04:57:00,61.0,52.3,29.63,SSE,158,1.1,1.4,73,0.00,CLR,,0.00,WeatherDisplay:10.37,2013-10-18 08:57:00,
2013-10-18 05:02:00,60.8,52.1,29.63,South,180,2.3,2.3,73,0.00,CLR,,0.00,WeatherDisplay:10.37,2013-10-18 09:02:00,
2013-10-18 05:07:00,60.6,51.9,29.63,NE,45,1.6,1.6,73,0.00,CLR,,0.00,WeatherDisplay:10.37,2013-10-18 09:07:00,
2013-10-18 05:12:00,60.4,51.7,29.64,West,270,2.3,2.3,73,0.00,CLR,,0.00,WeatherDisplay:10.37,2013-10-18 09:12:00,
2013-10-18 05:17:00,60.3,51.6,29.64,SSW,202,4.6,4.6,73,0.00,CLR,,0.00,WeatherDisplay:10.37,2013-10-18 09:17:00,
2013-10-18 05:22:00,60.3,51.9,29.64,South,180,0.2,0.2,74,0.00,CLR,,0.00,WeatherDisplay:10.37,2013-10-18 09:22:00,
2013-10-18 05:27:00,60.1,51.8,29.64,West,270,1.6,1.6,74,0.00,CLR,,0.00,WeatherDisplay:10.37,2013-10-18 09:27:00,
2013-10-18 05:32:00,59.9,51.6,29.64,South,180,2.3,2.6,74,0.00,CLR,,0.00,WeatherDisplay:10.37,2013-10-18 09:32:00,
2013-10-18 05:37:00,59.7,51.4,29.64,WSW,248,1.1,1.1,74,0.00,CLR,,0.00,WeatherDisplay:10.37,2013-10-18 09:37:00,
2013-10-18 05:42:00,59.4,51.1,29.64,SE,135,1.1,1.1,74,0.00,CLR,,0.00,WeatherDisplay:10.37,2013-10-18 09:42:00,
2013-10-18 05:47:00,59.4,51.1,29.64,WSW,248,1.1,1.1,74,0.00,CLR,,0.00,WeatherDisplay:10.37,2013-10-18 09:47:00,
2013-10-18 05:52:00,59.2,50.5,29.65,South,180,2.3,2.3,73,0.00,CLR,,0.00,WeatherDisplay:10.37,2013-10-18 09:52:00,
2013-10-18 05:57:00,59.0,50.4,29.65,WSW,248,2.3,2.3,73,0.00,CLR,,0.00,WeatherDisplay:10.37,2013-10-18 09:57:00,
2013-10-18 06:02:00,59.0,50.4,29.65,SW,225,1.1,1.1,73,0.00,CLR,,0.00,WeatherDisplay:10.37,2013-10-18 10:02:00,
2013-10-18 06:07:00,58.8,50.2,29.65,SSW,202,1.1,1.1,73,0.00,CLR,,0.00,WeatherDisplay:10.37,2013-10-18 10:07:00,
2013-10-18 06:12:00,58.6,50.0,29.65,SSW,202,3.5,3.5,73,0.00,CLR,,0.00,WeatherDisplay:10.37,2013-10-18 10:12:00,
2013-10-18 06:17:00,58.5,49.8,29.65,SW,225,1.1,1.1,73,0.00,CLR,,0.00,WeatherDisplay:10.37,2013-10-18 10:17:00,
2013-10-18 06:22:00,58.3,49.7,29.66,South,180,1.8,1.8,73,0.00,CLR,,0.00,WeatherDisplay:10.37,2013-10-18 10:22:00,
2013-10-18 06:27:00,58.3,49.3,29.66,SSW,202,2.4,2.4,72,0.00,CLR,,0.00,WeatherDisplay:10.37,2013-10-18 10:27:00,
2013-10-18 06:32:00,58.1,49.5,29.66,SW,225,1.1,1.1,73,0.00,CLR,,0.00,WeatherDisplay:10.37,2013-10-18 10:32:00,
2013-10-18 06:37:00,57.9,48.6,29.67,NNE,22,2.3,2.3,71,0.00,CLR,,0.00,WeatherDisplay:10.37,2013-10-18 10:37:00,
2013-10-18 06:42:00,57.7,48.4,29.67,North,0,1.1,1.1,71,0.00,CLR,,0.00,WeatherDisplay:10.37,2013-10-18 10:42:00,
2013-10-18 06:47:00,57.7,48.8,29.67,SW,225,1.1,1.1,72,0.00,CLR,,0.00,WeatherDisplay:10.37,2013-10-18 10:47:00,
2013-10-18 06:52:00,57.6,48.2,29.67,SSE,158,1.1,1.6,71,0.00,CLR,,0.00,WeatherDisplay:10.37,2013-10-18 10:52:00,
2013-10-18 06:57:00,57.6,47.8,29.68,North,0,1.1,1.1,70,0.00,CLR,,0.00,WeatherDisplay:10.37,2013-10-18 10:57:00,
2013-10-18 07:02:00,57.4,48.1,29.68,NE,45,1.1,1.1,71,0.00,CLR,,0.00,WeatherDisplay:10.37,2013-10-18 11:02:00,
2013-10-18 07:07:00,57.2,47.9,29.68,South,180,3.8,3.8,71,0.00,CLR,,0.00,WeatherDisplay:10.37,2013-10-18 11:07:00,
2013-10-18 07:12:00,57.0,47.7,29.69,SSE,158,1.6,1.6,71,0.00,CLR,,0.00,WeatherDisplay:10.37,2013-10-18 11:12:00,
2013-10-18 07:17:00,56.8,47.5,29.69,SW,225,2.3,2.3,71,0.00,CLR,,0.00,WeatherDisplay:10.37,2013-10-18 11:17:00,
2013-10-18 07:22:00,56.8,47.5,29.69,ESE,112,1.4,1.4,71,0.00,CLR,,0.00,WeatherDisplay:10.37,2013-10-18 11:22:00,
2013-10-18 07:27:00,56.8,47.5,29.70,East,90,1.1,1.1,71,0.00,CLR,,0.00,WeatherDisplay:10.37,2013-10-18 11:27:00,
2013-10-18 07:32:00,56.7,47.4,29.70,NNE,22,1.1,1.1,71,0.00,CLR,,0.00,WeatherDisplay:10.37,2013-10-18 11:32:00,
2013-10-18 07:37:00,56.5,46.8,29.70,East,90,0.0,1.4,70,0.00,CLR,,0.00,WeatherDisplay:10.37,2013-10-18 11:37:00,
2013-10-18 07:42:00,56.5,47.2,29.70,South,180,2.3,0.0,71,0.00,CLR,,0.00,WeatherDisplay:10.37,2013-10-18 11:42:00,
2013-10-18 07:47:00,56.5,47.2,29.70,SSW,202,0.2,0.2,71,0.00,CLR,,0.00,WeatherDisplay:10.37,2013-10-18 11:47:00,
2013-10-18 07:52:00,56.5,47.2,29.70,NNW,338,1.1,1.1,71,0.00,CLR,,0.00,WeatherDisplay:10.37,2013-10-18 11:52:00,
2013-10-18 07:57:00,56.5,47.6,29.71,West,270,0.0,0.0,72,0.00,CLR,,0.00,WeatherDisplay:10.37,2013-10-18 11:57:00,
2013-10-18 08:02:00,56.3,47.0,29.71,NNE,22,0.0,0.0,71,0.00,CLR,,0.00,WeatherDisplay:10.37,2013-10-18 12:02:00,
2013-10-18 08:07:00,56.3,47.0,29.71,NNW,338,1.1,1.1,71,0.00,CLR,,0.00,WeatherDisplay:10.37,2013-10-18 12:07:00,
2013-10-18 08:12:00,56.5,47.6,29.72,South,180,3.5,3.5,72,0.00,CLR,,0.00,WeatherDisplay:10.37,2013-10-18 12:12:00,
2013-10-18 08:17:00,56.3,47.4,29.72,ESE,112,0.0,0.0,72,0.00,CLR,,0.00,WeatherDisplay:10.37,2013-10-18 12:17:00,
2013-10-18 08:22:00,56.5,47.6,29.73,SSE,158,1.1,1.6,72,0.00,CLR,,0.00,WeatherDisplay:10.37,2013-10-18 12:22:00,
2013-10-18 08:27:00,56.5,47.6,29.73,SE,135,3.5,3.5,72,0.00,CLR,,0.00,WeatherDisplay:10.37,2013-10-18 12:27:00,
2013-10-18 08:32:00,56.5,47.2,29.73,SW,225,3.6,3.6,71,0.00,CLR,,0.00,WeatherDisplay:10.37,2013-10-18 12:32:00,
2013-10-18 08:37:00,56.7,47.4,29.73,South,180,2.3,2.3,71,0.00,CLR,,0.00,WeatherDisplay:10.37,2013-10-18 12:37:00,
2013-10-18 08:42:00,56.8,47.2,29.74,NE,45,1.1,1.1,70,0.00,CLR,,0.00,WeatherDisplay:10.37,2013-10-18 12:42:00,
2013-10-18 08:47:00,56.8,47.5,29.74,SW,225,0.5,0.5,71,0.00,CLR,,0.00,WeatherDisplay:10.37,2013-10-18 12:47:00,
2013-10-18 08:52:00,56.8,47.2,29.74,SSW,202,0.5,0.5,70,0.00,CLR,,0.00,WeatherDisplay:10.37,2013-10-18 12:52:00,
2013-10-18 08:57:00,57.0,46.9,29.74,SSW,202,2.6,2.6,69,0.00,CLR,,0.00,WeatherDisplay:10.37,2013-10-18 12:57:00,
2013-10-18 09:02:00,57.2,47.1,29.74,ENE,68,2.3,2.3,69,0.00,CLR,,0.00,WeatherDisplay:10.37,2013-10-18 13:02:00,
2013-10-18 09:07:00,57.2,46.3,29.75,NNW,338,2.3,2.3,67,0.00,CLR,,0.00,WeatherDisplay:10.37,2013-10-18 13:07:00,
2013-10-18 09:12:00,57.4,46.5,29.75,North,0,3.5,3.5,67,0.00,CLR,,0.00,WeatherDisplay:10.37,2013-10-18 13:12:00,
2013-10-18 09:17:00,57.6,46.7,29.75,South,180,2.6,2.6,67,0.00,CLR,,0.00,WeatherDisplay:10.37,2013-10-18 13:17:00,
2013-10-18 09:22:00,57.6,46.7,29.75,NE,45,1.1,1.1,67,0.00,CLR,,0.00,WeatherDisplay:10.37,2013-10-18 13:22:00,
2013-10-18 09:27:00,57.7,46.9,29.75,ENE,68,1.1,1.1,67,0.00,CLR,,0.00,WeatherDisplay:10.37,2013-10-18 13:27:00,
2013-10-18 09:32:00,57.9,47.0,29.75,WSW,248,0.0,0.5,67,0.00,CLR,,0.00,WeatherDisplay:10.37,2013-10-18 13:32:00,
2013-10-18 09:37:00,57.9,46.2,29.74,ESE,112,1.1,1.1,65,0.00,CLR,,0.00,WeatherDisplay:10.37,2013-10-18 13:37:00,
2013-10-18 09:42:00,58.1,46.4,29.74,East,90,2.4,2.4,65,0.00,CLR,,0.00,WeatherDisplay:10.37,2013-10-18 13:42:00,
2013-10-18 09:47:00,58.1,46.4,29.74,NNE,22,0.5,0.5,65,0.00,CLR,,0.00,WeatherDisplay:10.37,2013-10-18 13:47:00,
2013-10-18 09:52:00,58.5,46.7,29.75,East,90,2.3,2.3,65,0.00,CLR,,0.00,WeatherDisplay:10.37,2013-10-18 13:52:00,
2013-10-18 09:57:00,58.5,46.3,29.75,North,0,1.1,1.1,64,0.00,CLR,,0.00,WeatherDisplay:10.37,2013-10-18 13:57:00,
2013-10-18 10:02:00,58.5,46.7,29.75,SW,225,0.2,0.2,65,0.00,CLR,,0.00,WeatherDisplay:10.37,2013-10-18 14:02:00,
2013-10-18 10:07:00,58.6,46.5,29.75,SE,135,1.4,1.4,64,0.00,CLR,,0.00,WeatherDisplay:10.37,2013-10-18 14:07:00,
2013-10-18 10:12:00,59.0,46.8,29.75,NE,45,1.4,1.4,64,0.00,CLR,,0.00,WeatherDisplay:10.37,2013-10-18 14:12:00,
2013-10-18 10:17:00,59.2,47.0,29.75,ENE,68,1.4,1.4,64,0.00,CLR,,0.00,WeatherDisplay:10.37,2013-10-18 14:17:00,
2013-10-18 10:22:00,59.4,46.8,29.75,WSW,248,2.3,2.3,63,0.00,CLR,,0.00,WeatherDisplay:10.37,2013-10-18 14:22:00,
2013-10-18 10:27:00,59.4,46.8,29.75,ESE,112,1.4,1.4,63,0.00,CLR,,0.00,WeatherDisplay:10.37,2013-10-18 14:27:00,
2013-10-18 10:32:00,59.5,46.5,29.75,North,0,3.5,3.5,62,0.00,CLR,,0.00,WeatherDisplay:10.37,2013-10-18 14:32:00,
2013-10-18 10:37:00,59.7,46.7,29.76,SSE,158,2.3,2.3,62,0.00,CLR,,0.00,WeatherDisplay:10.37,2013-10-18 14:37:00,
2013-10-18 10:42:00,59.7,46.7,29.75,North,0,1.1,1.1,62,0.00,CLR,,0.00,WeatherDisplay:10.37,2013-10-18 14:42:00,
2013-10-18 10:47:00,60.1,47.4,29.75,SSW,202,4.7,4.7,63,0.00,CLR,,0.00,WeatherDisplay:10.37,2013-10-18 14:47:00,
2013-10-18 10:52:00,60.1,47.0,29.75,NW,315,3.5,3.5,62,0.00,CLR,,0.00,WeatherDisplay:10.37,2013-10-18 14:52:00,
2013-10-18 10:57:00,60.4,47.8,29.76,NE,45,0.5,0.5,63,0.00,CLR,,0.00,WeatherDisplay:10.37,2013-10-18 14:57:00,
2013-10-18 11:02:00,60.6,47.5,29.76,NE,45,2.3,2.3,62,0.00,CLR,,0.00,WeatherDisplay:10.37,2013-10-18 15:02:00,
2013-10-18 11:07:00,60.8,47.3,29.76,NW,315,0.5,0.5,61,0.00,CLR,,0.00,WeatherDisplay:10.37,2013-10-18 15:07:00,
2013-10-18 11:12:00,61.2,47.6,29.76,NNW,338,0.0,0.5,61,0.00,CLR,,0.00,WeatherDisplay:10.37,2013-10-18 15:12:00,
2013-10-18 11:17:00,61.3,47.8,29.76,ENE,68,2.3,2.3,61,0.00,CLR,,0.00,WeatherDisplay:10.37,2013-10-18 15:17:00,
2013-10-18 11:22:00,61.3,47.8,29.76,SW,225,2.3,2.3,61,0.00,CLR,,0.00,WeatherDisplay:10.37,2013-10-18 15:22:00,
2013-10-18 11:27:00,61.5,46.6,29.76,ENE,68,2.3,2.3,58,0.00,CLR,,0.00,WeatherDisplay:10.37,2013-10-18 15:27:00,
2013-10-18 11:32:00,61.5,46.6,29.76,ENE,68,2.3,2.3,58,0.00,CLR,,0.00,WeatherDisplay:10.37,2013-10-18 15:32:00,
2013-10-18 11:37:00,61.7,47.7,29.75,NW,315,1.1,1.1,60,0.00,CLR,,0.00,WeatherDisplay:10.37,2013-10-18 15:37:00,
2013-10-18 11:42:00,62.1,48.0,29.76,South,180,1.1,1.1,60,0.00,CLR,,0.00,WeatherDisplay:10.37,2013-10-18 15:42:00,
2013-10-18 11:47:00,62.2,47.3,29.75,NW,315,1.1,1.1,58,0.00,CLR,,0.00,WeatherDisplay:10.37,2013-10-18 15:47:00,
2013-10-18 11:52:00,62.2,46.8,29.75,SSW,202,4.6,4.6,57,0.00,CLR,,0.00,WeatherDisplay:10.37,2013-10-18 15:52:00,
2013-10-18 11:57:00,62.4,47.4,29.75,WSW,248,3.5,3.5,58,0.00,CLR,,0.00,WeatherDisplay:10.37,2013-10-18 15:57:00,
2013-10-18 12:02:00,62.6,48.1,29.75,South,180,1.1,1.1,59,0.00,CLR,,0.00,WeatherDisplay:10.37,2013-10-18 16:02:00,
2013-10-18 12:07:00,62.8,47.8,29.75,SE,135,2.3,2.3,58,0.00,CLR,,0.00,WeatherDisplay:10.37,2013-10-18 16:07:00,
2013-10-18 12:12:00,63.0,47.0,29.75,East,90,2.3,2.3,56,0.00,CLR,,0.00,WeatherDisplay:10.37,2013-10-18 16:12:00,
2013-10-18 12:17:00,63.0,47.0,29.75,East,90,0.5,0.5,56,0.00,CLR,,0.00,WeatherDisplay:10.37,2013-10-18 16:17:00,
2013-10-18 12:22:00,63.1,46.2,29.75,NE,45,2.4,2.4,54,0.00,CLR,,0.00,WeatherDisplay:10.37,2013-10-18 16:22:00,
2013-10-18 12:27:00,63.3,46.9,29.75,South,180,2.6,2.6,55,0.00,CLR,,0.00,WeatherDisplay:10.37,2013-10-18 16:27:00,
2013-10-18 12:32:00,63.5,47.0,29.75,East,90,1.1,1.1,55,0.00,CLR,,0.00,WeatherDisplay:10.37,2013-10-18 16:32:00,
2013-10-18 12:37:00,63.5,46.6,29.75,East,90,1.6,1.6,54,0.00,CLR,,0.00,WeatherDisplay:10.37,2013-10-18 16:37:00,
2013-10-18 12:42:00,63.9,46.9,29.75,SSE,158,3.5,3.5,54,0.00,CLR,,0.00,WeatherDisplay:10.37,2013-10-18 16:42:00,
2013-10-18 12:47:00,63.9,46.9,29.75,ESE,112,2.3,2.6,54,0.00,CLR,,0.00,WeatherDisplay:10.37,2013-10-18 16:47:00,
2013-10-18 12:52:00,64.0,47.1,29.74,NW,315,2.4,2.4,54,0.00,CLR,,0.00,WeatherDisplay:10.37,2013-10-18 16:52:00,
2013-10-18 12:57:00,64.2,47.2,29.75,ENE,68,1.1,1.1,54,0.00,CLR,,0.00,WeatherDisplay:10.37,2013-10-18 16:57:00,
2013-10-18 13:02:00,64.4,45.9,29.74,South,180,2.3,2.3,51,0.00,CLR,,0.00,WeatherDisplay:10.37,2013-10-18 17:02:00,
2013-10-18 13:07:00,64.4,45.9,29.74,NE,45,2.3,2.3,51,0.00,CLR,,0.00,WeatherDisplay:10.37,2013-10-18 17:07:00,
2013-10-18 13:12:00,64.6,47.1,29.74,ENE,68,2.3,2.3,53,0.00,CLR,,0.00,WeatherDisplay:10.37,2013-10-18 17:12:00,
2013-10-18 13:17:00,64.8,46.7,29.74,SE,135,1.1,1.1,52,0.00,CLR,,0.00,WeatherDisplay:10.37,2013-10-18 17:17:00,
2013-10-18 13:22:00,64.9,46.9,29.74,East,90,1.1,1.1,52,0.00,CLR,,0.00,WeatherDisplay:10.37,2013-10-18 17:22:00,
2013-10-18 13:27:00,65.1,46.5,29.74,North,0,1.1,1.1,51,0.00,CLR,,0.00,WeatherDisplay:10.37,2013-10-18 17:27:00,
2013-10-18 13:32:00,65.1,45.5,29.74,East,90,3.6,3.6,49,0.00,CLR,,0.00,WeatherDisplay:10.37,2013-10-18 17:32:00,
2013-10-18 13:35:00,65.5,45.8,29.74,NE,45,3.5,3.5,49,0.00,CLR,,0.00,WeatherDisplay:10.37,2013-10-18 17:35:00,
2013-10-18 13:40:00,65.8,46.7,29.74,West,270,4.6,4.6,50,0.00,CLR,,0.00,WeatherDisplay:10.37,2013-10-18 17:40:00,
2013-10-18 13:45:00,65.8,46.7,29.74,SSW,202,3.5,3.5,50,0.00,CLR,,0.00,WeatherDisplay:10.37,2013-10-18 17:45:00,
2013-10-18 13:50:00,66.0,46.3,29.74,SSE,158,8.1,8.3,49,0.00,CLR,,0.00,WeatherDisplay:10.37,2013-10-18 17:50:00,
2013-10-18 13:55:00,66.2,47.0,29.74,NW,315,2.3,2.3,50,0.00,CLR,,0.00,WeatherDisplay:10.37,2013-10-18 17:55:00,
2013-10-18 14:00:00,66.6,46.3,29.73,NNE,22,2.3,2.3,48,0.00,CLR,,0.00,WeatherDisplay:10.37,2013-10-18 18:00:00,
2013-10-18 14:05:00,66.7,46.4,29.73,SSW,202,2.4,2.4,48,0.00,CLR,,0.00,WeatherDisplay:10.37,2013-10-18 18:05:00,
2013-10-18 14:10:00,66.7,47.0,29.73,East,90,2.3,2.3,49,0.00,CLR,,0.00,WeatherDisplay:10.37,2013-10-18 18:10:00,
2013-10-18 14:15:00,66.6,45.7,29.73,ENE,68,1.1,1.1,47,0.00,CLR,,0.00,WeatherDisplay:10.37,2013-10-18 18:15:00,
2013-10-18 14:20:00,66.7,47.0,29.73,NNW,338,2.3,2.3,49,0.00,CLR,,0.00,WeatherDisplay:10.37,2013-10-18 18:20:00,
2013-10-18 14:25:00,66.9,47.1,29.73,ESE,112,2.3,2.3,49,0.00,CLR,,0.00,WeatherDisplay:10.37,2013-10-18 18:25:00,
2013-10-18 14:30:00,66.9,46.0,29.73,NE,45,5.8,5.8,47,0.00,CLR,,0.00,WeatherDisplay:10.37,2013-10-18 18:30:00,
2013-10-18 14:35:00,66.9,46.0,29.73,East,90,2.3,2.3,47,0.00,CLR,,0.00,WeatherDisplay:10.37,2013-10-18 18:35:00,
2013-10-18 14:40:00,66.9,46.6,29.73,SSW,202,1.1,1.1,48,0.00,CLR,,0.00,WeatherDisplay:10.37,2013-10-18 18:40:00,
2013-10-18 14:45:00,67.3,46.9,29.74,NE,45,2.3,2.3,48,0.00,CLR,,0.00,WeatherDisplay:10.37,2013-10-18 18:45:00,
2013-10-18 14:50:00,67.3,46.9,29.74,SSW,202,0.2,0.2,48,0.00,CLR,,0.00,WeatherDisplay:10.37,2013-10-18 18:50:00,
2013-10-18 14:55:00,67.5,45.9,29.74,South,180,1.4,1.4,46,0.00,CLR,,0.00,WeatherDisplay:10.37,2013-10-18 18:55:00,
2013-10-18 15:00:00,67.6,45.5,29.74,ENE,68,2.4,2.4,45,0.00,CLR,,0.00,WeatherDisplay:10.37,2013-10-18 19:00:00,
2013-10-18 15:05:00,67.6,45.5,29.74,North,0,3.5,3.5,45,0.00,CLR,,0.00,WeatherDisplay:10.37,2013-10-18 19:05:00,
2013-10-18 15:10:00,67.6,46.1,29.74,WNW,292,2.3,2.3,46,0.00,CLR,,0.00,WeatherDisplay:10.37,2013-10-18 19:10:00,
2013-10-18 15:15:00,67.8,46.3,29.74,WNW,292,2.3,2.3,46,0.00,CLR,,0.00,WeatherDisplay:10.37,2013-10-18 19:15:00,
2013-10-18 15:20:00,68.0,45.9,29.74,NNE,22,1.1,1.1,45,0.00,CLR,,0.00,WeatherDisplay:10.37,2013-10-18 19:20:00,
2013-10-18 15:25:00,68.2,45.4,29.73,East,90,1.1,1.1,44,0.00,CLR,,0.00,WeatherDisplay:10.37,2013-10-18 19:25:00,
2013-10-18 15:30:00,68.4,46.2,29.74,South,180,1.4,1.4,45,0.00,CLR,,0.00,WeatherDisplay:10.37,2013-10-18 19:30:00,
2013-10-18 15:35:00,68.5,45.1,29.73,WSW,248,1.1,1.1,43,0.00,CLR,,0.00,WeatherDisplay:10.37,2013-10-18 19:35:00,
2013-10-18 15:40:00,69.1,47.4,29.73,SE,135,2.3,2.3,46,0.00,CLR,,0.00,WeatherDisplay:10.37,2013-10-18 19:40:00,
2013-10-18 15:45:00,69.1,46.2,29.73,SE,135,2.3,2.3,44,0.00,CLR,,0.00,WeatherDisplay:10.37,2013-10-18 19:45:00,
2013-10-18 15:50:00,69.1,46.8,29.73,West,270,1.1,1.1,45,0.00,CLR,,0.00,WeatherDisplay:10.37,2013-10-18 19:50:00,
2013-10-18 15:55:00,69.1,46.8,29.73,SW,225,1.1,1.1,45,0.00,CLR,,0.00,WeatherDisplay:10.37,2013-10-18 19:55:00,
2013-10-18 16:00:00,69.3,45.8,29.74,ENE,68,2.4,2.4,43,0.00,CLR,,0.00,WeatherDisplay:10.37,2013-10-18 20:00:00,
2013-10-18 16:05:00,69.1,46.8,29.73,SSW,202,2.3,2.3,45,0.00,CLR,,0.00,WeatherDisplay:10.37,2013-10-18 20:05:00,
2013-10-18 16:10:00,69.3,47.0,29.73,SSE,158,1.1,1.1,45,0.00,CLR,,0.00,WeatherDisplay:10.37,2013-10-18 20:10:00,
2013-10-18 16:15:00,69.4,46.6,29.73,NNE,22,2.3,2.3,44,0.00,CLR,,0.00,WeatherDisplay:10.37,2013-10-18 20:15:00,
2013-10-18 16:20:00,69.6,46.7,29.73,South,180,1.1,1.1,44,0.00,CLR,,0.00,WeatherDisplay:10.37,2013-10-18 20:20:00,
2013-10-18 16:25:00,69.8,46.9,29.73,ENE,68,1.1,1.1,44,0.00,CLR,,0.00,WeatherDisplay:10.37,2013-10-18 20:25:00,
2013-10-18 16:30:00,70.0,47.1,29.74,East,90,3.5,3.5,44,0.00,CLR,,0.00,WeatherDisplay:10.37,2013-10-18 20:30:00,
2013-10-18 16:35:00,70.0,47.1,29.73,ENE,68,1.1,1.1,44,0.00,CLR,,0.00,WeatherDisplay:10.37,2013-10-18 20:35:00,
2013-10-18 16:40:00,70.0,46.4,29.73,North,0,2.3,2.3,43,0.00,CLR,,0.00,WeatherDisplay:10.37,2013-10-18 20:40:00,
2013-10-18 16:45:00,69.8,47.5,29.73,ESE,112,2.3,2.3,45,0.00,CLR,,0.00,WeatherDisplay:10.37,2013-10-18 20:45:00,
2013-10-18 16:50:00,70.0,46.4,29.74,NE,45,1.6,1.6,43,0.00,CLR,,0.00,WeatherDisplay:10.37,2013-10-18 20:50:00,
2013-10-18 16:55:00,69.6,46.7,29.74,South,180,1.8,1.8,44,0.00,CLR,,0.00,WeatherDisplay:10.37,2013-10-18 20:55:00,
2013-10-18 17:00:00,69.4,46.6,29.74,SE,135,3.5,3.5,44,0.00,CLR,,0.00,WeatherDisplay:10.37,2013-10-18 21:00:00,
2013-10-18 17:05:00,68.9,46.1,29.74,NE,45,2.3,2.3,44,0.00,CLR,,0.00,WeatherDisplay:10.37,2013-10-18 21:05:00,
2013-10-18 17:10:00,68.5,45.8,29.74,SE,135,1.1,1.1,44,0.00,CLR,,0.00,WeatherDisplay:10.37,2013-10-18 21:10:00,
2013-10-18 17:15:00,68.4,45.6,29.74,South,180,4.9,4.9,44,0.00,CLR,,0.00,WeatherDisplay:10.37,2013-10-18 21:15:00,
2013-10-18 17:20:00,68.2,45.4,29.74,SSW,202,0.2,0.2,44,0.00,CLR,,0.00,WeatherDisplay:10.37,2013-10-18 21:20:00,
2013-10-18 17:25:00,68.0,45.3,29.75,ENE,68,1.4,1.4,44,0.00,CLR,,0.00,WeatherDisplay:10.37,2013-10-18 21:25:00,
2013-10-18 17:30:00,67.1,44.4,29.75,NNE,22,2.3,2.3,44,0.00,CLR,,0.00,WeatherDisplay:10.37,2013-10-18 21:30:00,
2013-10-18 17:35:00,66.9,44.9,29.75,NW,315,0.2,0.2,45,0.00,CLR,,0.00,WeatherDisplay:10.37,2013-10-18 21:35:00,
2013-10-18 17:40:00,66.6,44.5,29.76,South,180,0.0,0.0,45,0.00,CLR,,0.00,WeatherDisplay:10.37,2013-10-18 21:40:00,
2013-10-18 17:45:00,66.2,44.8,29.76,NE,45,0.0,0.0,46,0.00,CLR,,0.00,WeatherDisplay:10.37,2013-10-18 21:45:00,
2013-10-18 17:50:00,65.8,44.5,29.76,South,180,0.2,0.2,46,0.00,CLR,,0.00,WeatherDisplay:10.37,2013-10-18 21:50:00,
2013-10-18 17:55:00,65.7,44.9,29.76,ENE,68,1.1,1.1,47,0.00,CLR,,0.00,WeatherDisplay:10.37,2013-10-18 21:55:00,
2013-10-18 18:00:00,65.3,44.5,29.77,NE,45,1.1,1.1,47,0.00,CLR,,0.00,WeatherDisplay:10.37,2013-10-18 22:00:00,
2013-10-18 18:05:00,65.1,43.8,29.77,NE,45,0.0,0.0,46,0.00,CLR,,0.00,WeatherDisplay:10.37,2013-10-18 22:05:00,
2013-10-18 18:10:00,64.8,44.1,29.77,SSE,158,0.0,0.5,47,0.00,CLR,,0.00,WeatherDisplay:10.37,2013-10-18 22:10:00,
2013-10-18 18:15:00,64.4,44.3,29.77,SSE,158,0.2,0.2,48,0.00,CLR,,0.00,WeatherDisplay:10.37,2013-10-18 22:15:00,
2013-10-18 18:20:00,64.2,44.1,29.77,WSW,248,0.0,0.0,48,0.00,CLR,,0.00,WeatherDisplay:10.37,2013-10-18 22:20:00,
2013-10-18 18:25:00,63.9,44.3,29.77,SSE,158,0.0,0.0,49,0.00,CLR,,0.00,WeatherDisplay:10.37,2013-10-18 22:25:00,
2013-10-18 18:30:00,63.7,44.2,29.78,SSE,158,0.0,0.0,49,0.00,CLR,,0.00,WeatherDisplay:10.37,2013-10-18 22:30:00,
2013-10-18 18:35:00,63.1,43.7,29.78,ESE,112,0.0,0.0,49,0.00,CLR,,0.00,WeatherDisplay:10.37,2013-10-18 22:35:00,
2013-10-18 18:40:00,63.0,44.0,29.78,SSW,202,0.5,0.5,50,0.00,CLR,,0.00,WeatherDisplay:10.37,2013-10-18 22:40:00,
2013-10-18 18:45:00,62.6,43.7,29.79,ESE,112,0.0,0.0,50,0.00,CLR,,0.00,WeatherDisplay:10.37,2013-10-18 22:45:00,
2013-10-18 18:50:00,62.4,44.0,29.79,ENE,68,0.0,0.0,51,0.00,CLR,,0.00,WeatherDisplay:10.37,2013-10-18 22:50:00,
2013-10-18 18:55:00,62.2,43.9,29.79,SSW,202,0.5,0.5,51,0.00,CLR,,0.00,WeatherDisplay:10.37,2013-10-18 22:55:00,
2013-10-18 19:00:00,62.1,43.7,29.80,SSW,202,1.1,1.1,51,0.00,CLR,,0.00,WeatherDisplay:10.37,2013-10-18 23:00:00,
2013-10-18 19:05:00,61.9,43.5,29.80,SSE,158,0.0,0.0,51,0.00,CLR,,0.00,WeatherDisplay:10.37,2013-10-18 23:05:00,
2013-10-18 19:10:00,61.7,43.4,29.80,SSE,158,0.2,0.2,51,0.00,CLR,,0.00,WeatherDisplay:10.37,2013-10-18 23:10:00,
2013-10-18 19:15:00,61.5,43.2,29.80,SSE,158,0.0,0.0,51,0.00,CLR,,0.00,WeatherDisplay:10.37,2013-10-18 23:15:00,
2013-10-18 19:20:00,61.3,43.6,29.80,ENE,68,0.5,0.5,52,0.00,CLR,,0.00,WeatherDisplay:10.37,2013-10-18 23:20:00,
2013-10-18 19:25:00,61.2,43.4,29.81,NW,315,0.0,0.0,52,0.00,CLR,,0.00,WeatherDisplay:10.37,2013-10-18 23:25:00,
2013-10-18 19:30:00,60.8,43.1,29.81,WNW,292,0.0,0.0,52,0.00,CLR,,0.00,WeatherDisplay:10.37,2013-10-18 23:30:00,
2013-10-18 19:35:00,60.6,43.4,29.81,WNW,292,0.0,0.0,53,0.00,CLR,,0.00,WeatherDisplay:10.37,2013-10-18 23:35:00,
2013-10-18 19:40:00,60.4,43.2,29.81,WNW,292,0.0,0.0,53,0.00,CLR,,0.00,WeatherDisplay:10.37,2013-10-18 23:40:00,
2013-10-18 19:45:00,59.9,43.2,29.81,WNW,292,0.0,0.0,54,0.00,CLR,,0.00,WeatherDisplay:10.37,2013-10-18 23:45:00,
2013-10-18 19:50:00,59.7,43.5,29.82,WNW,292,0.0,0.0,55,0.00,CLR,,0.00,WeatherDisplay:10.37,2013-10-18 23:50:00,
2013-10-18 19:55:00,59.4,43.2,29.81,WNW,292,0.0,0.0,55,0.00,CLR,,0.00,WeatherDisplay:10.37,2013-10-18 23:55:00,
2013-10-18 20:00:00,59.2,43.5,29.81,SE,135,0.0,0.0,56,0.00,CLR,,0.00,WeatherDisplay:10.37,2013-10-19 00:00:00,
2013-10-18 20:05:00,58.8,43.1,29.82,ESE,112,0.2,0.2,56,0.00,CLR,,0.00,WeatherDisplay:10.37,2013-10-19 00:05:00,
2013-10-18 20:10:00,58.8,43.1,29.81,SSE,158,1.1,1.1,56,0.00,CLR,,0.00,WeatherDisplay:10.37,2013-10-19 00:10:00,
2013-10-18 20:15:00,58.8,43.6,29.82,South,180,1.1,1.1,57,0.00,CLR,,0.00,WeatherDisplay:10.37,2013-10-19 00:15:00,
2013-10-18 20:20:00,58.8,43.6,29.82,SW,225,0.0,0.0,57,0.00,CLR,,0.00,WeatherDisplay:10.37,2013-10-19 00:20:00,
2013-10-18 20:25:00,58.6,43.4,29.82,NNE,22,1.1,0.0,57,0.00,CLR,,0.00,WeatherDisplay:10.37,2013-10-19 00:25:00,
2013-10-18 20:30:00,58.6,43.4,29.82,SE,135,0.5,0.5,57,0.00,CLR,,0.00,WeatherDisplay:10.37,2013-10-19 00:30:00,
2013-10-18 20:35:00,58.6,43.4,29.82,SSW,202,0.5,0.5,57,0.00,CLR,,0.00,WeatherDisplay:10.37,2013-10-19 00:35:00,
2013-10-18 20:40:00,58.6,43.4,29.82,SSW,202,1.1,1.1,57,0.00,CLR,,0.00,WeatherDisplay:10.37,2013-10-19 00:40:00,
2013-10-18 20:45:00,58.6,43.9,29.82,ESE,112,0.0,0.0,58,0.00,CLR,,0.00,WeatherDisplay:10.37,2013-10-19 00:45:00,
2013-10-18 20:50:00,58.5,43.7,29.82,SSE,158,1.1,1.1,58,0.00,CLR,,0.00,WeatherDisplay:10.37,2013-10-19 00:50:00,
2013-10-18 20:55:00,58.3,43.6,29.83,SSW,202,0.0,0.0,58,0.00,CLR,,0.00,WeatherDisplay:10.37,2013-10-19 00:55:00,
2013-10-18 21:00:00,58.3,43.6,29.83,SE,135,1.1,0.0,58,0.00,CLR,,0.00,WeatherDisplay:10.37,2013-10-19 01:00:00,
2013-10-18 21:05:00,58.1,43.4,29.83,East,90,0.0,0.5,58,0.00,CLR,,0.00,WeatherDisplay:10.37,2013-10-19 01:05:00,
2013-10-18 21:10:00,57.9,43.2,29.83,SSW,202,0.0,0.0,58,0.00,CLR,,0.00,WeatherDisplay:10.37,2013-10-19 01:10:00,
2013-10-18 21:15:00,57.9,43.2,29.83,SSW,202,0.0,0.5,58,0.00,CLR,,0.00,WeatherDisplay:10.37,2013-10-19 01:15:00,
2013-10-18 21:20:00,57.7,43.1,29.84,SSE,158,0.5,0.5,58,0.00,CLR,,0.00,WeatherDisplay:10.37,2013-10-19 01:20:00,
2013-10-18 21:25:00,57.6,42.9,29.84,ESE,112,0.0,0.0,58,0.00,CLR,,0.00,WeatherDisplay:10.37,2013-10-19 01:25:00,
2013-10-18 21:30:00,57.6,42.9,29.84,ESE,112,0.0,0.0,58,0.00,CLR,,0.00,WeatherDisplay:10.37,2013-10-19 01:30:00,
2013-10-18 21:35:00,57.4,43.2,29.84,SE,135,0.0,0.0,59,0.00,CLR,,0.00,WeatherDisplay:10.37,2013-10-19 01:35:00,
2013-10-18 21:40:00,57.2,43.0,29.84,SSE,158,0.0,0.2,59,0.00,CLR,,0.00,WeatherDisplay:10.37,2013-10-19 01:40:00,
2013-10-18 21:45:00,57.0,42.8,29.84,WSW,248,0.0,0.0,59,0.00,CLR,,0.00,WeatherDisplay:10.37,2013-10-19 01:45:00,
2013-10-18 21:50:00,57.0,42.8,29.84,East,90,0.0,0.0,59,0.00,CLR,,0.00,WeatherDisplay:10.37,2013-10-19 01:50:00,
2013-10-18 21:55:00,56.8,43.1,29.84,ESE,112,1.1,1.1,60,0.00,CLR,,0.00,WeatherDisplay:10.37,2013-10-19 01:55:00,
2013-10-18 22:00:00,56.7,42.9,29.84,WNW,292,0.0,0.0,60,0.00,CLR,,0.00,WeatherDisplay:10.37,2013-10-19 02:00:00,
2013-10-18 22:05:00,56.7,42.9,29.85,NNW,338,1.1,1.1,60,0.00,CLR,,0.00,WeatherDisplay:10.37,2013-10-19 02:05:00,
2013-10-18 22:10:00,56.5,43.2,29.85,WNW,292,0.2,0.2,61,0.00,CLR,,0.00,WeatherDisplay:10.37,2013-10-19 02:10:00,
2013-10-18 22:15:00,56.5,43.2,29.85,NW,315,1.1,1.1,61,0.00,CLR,,0.00,WeatherDisplay:10.37,2013-10-19 02:15:00,
2013-10-18 22:20:00,56.1,42.8,29.85,SW,225,0.0,0.0,61,0.00,CLR,,0.00,WeatherDisplay:10.37,2013-10-19 02:20:00,
2013-10-18 22:25:00,55.9,42.7,29.85,SSE,158,0.0,0.0,61,0.00,CLR,,0.00,WeatherDisplay:10.37,2013-10-19 02:25:00,
2013-10-18 22:30:00,55.8,42.5,29.85,SE,135,0.0,0.0,61,0.00,CLR,,0.00,WeatherDisplay:10.37,2013-10-19 02:30:00,
2013-10-18 22:35:00,55.6,42.8,29.85,SW,225,0.0,0.0,62,0.00,CLR,,0.00,WeatherDisplay:10.37,2013-10-19 02:35:00,
2013-10-18 22:40:00,55.4,42.6,29.86,SSW,202,0.0,0.0,62,0.00,CLR,,0.00,WeatherDisplay:10.37,2013-10-19 02:40:00,
2013-10-18 22:45:00,55.2,42.4,29.86,SE,135,0.0,0.0,62,0.00,CLR,,0.00,WeatherDisplay:10.37,2013-10-19 02:45:00,
2013-10-18 22:50:00,55.2,42.8,29.86,ESE,112,0.0,0.2,63,0.00,CLR,,0.00,WeatherDisplay:10.37,2013-10-19 02:50:00,
2013-10-18 22:55:00,55.0,42.7,29.86,ESE,112,0.0,0.0,63,0.00,CLR,,0.00,WeatherDisplay:10.37,2013-10-19 02:55:00,
2013-10-18 23:00:00,54.7,42.3,29.86,ESE,112,0.0,0.0,63,0.00,CLR,,0.00,WeatherDisplay:10.37,2013-10-19 03:00:00,
2013-10-18 23:05:00,54.5,42.6,29.86,ESE,112,0.0,0.0,64,0.00,CLR,,0.00,WeatherDisplay:10.37,2013-10-19 03:05:00,
2013-10-18 23:10:00,54.1,42.2,29.86,ESE,112,0.0,0.0,64,0.00,CLR,,0.00,WeatherDisplay:10.37,2013-10-19 03:10:00,
2013-10-18 23:15:00,53.8,41.9,29.86,ESE,112,0.0,0.0,64,0.00,CLR,,0.00,WeatherDisplay:10.37,2013-10-19 03:15:00,
2013-10-18 23:20:00,53.2,41.8,29.86,ESE,112,0.0,0.0,65,0.00,CLR,,0.00,WeatherDisplay:10.37,2013-10-19 03:20:00,
2013-10-18 23:25:00,52.9,41.8,29.86,East,90,0.0,0.0,66,0.00,CLR,,0.00,WeatherDisplay:10.37,2013-10-19 03:25:00,
2013-10-18 23:30:00,52.7,42.0,29.85,East,90,0.0,0.0,67,0.00,CLR,,0.00,WeatherDisplay:10.37,2013-10-19 03:30:00,
2013-10-18 23:35:00,52.5,41.9,29.86,East,90,0.0,0.0,67,0.00,CLR,,0.00,WeatherDisplay:10.37,2013-10-19 03:35:00,
2013-10-18 23:40:00,52.2,41.9,29.86,East,90,0.0,0.0,68,0.00,CLR,,0.00,WeatherDisplay:10.37,2013-10-19 03:40:00,
2013-10-18 23:45:00,52.2,41.9,29.86,East,90,0.0,0.0,68,0.00,CLR,,0.00,WeatherDisplay:10.37,2013-10-19 03:45:00,
2013-10-18 23:50:00,52.0,42.1,29.86,East,90,0.0,0.0,69,0.00,CLR,,0.00,WeatherDisplay:10.37,2013-10-19 03:50:00,
2013-10-18 23:55:00,51.8,41.6,29.86,East,90,0.0,0.0,68,0.00,CLR,,0.00,WeatherDisplay:10.37,2013-10-19 03:55:00,